Time;durP1;ratioP1;P1;durP2;ratioP2;P2;SDS_P1;SDS_P2;PMS_P1;PMS_P2;Temp;Humidity;BMP_temperature;BMP_pressure;BME280_temperature;BME280_humidity;BME280_pressure;Samples;Min_cycle;Max_cycle;Signal;HPM_P1;HPM_P2
2022/12/17 13:07:26;;;;;;;;;;;-1.50;99.90;;;;;;5024530;28;19929;-74
2022/12/17 13:09:54;;;;;;;;;;;-1.40;99.90;;;;;;4988445;28;19929;-75
2022/12/17 13:12:45;;;;;;;;;;;-1.40;99.90;;;;;;5011569;28;19955;-76
2022/12/17 13:15:36;;;;;;;;;;;-1.50;99.90;;;;;;5000994;28;19925;-75
2022/12/17 13:18:15;;;;;;;;;;;-1.40;99.90;;;;;;4978034;28;19926;-75
2022/12/17 13:20:41;;;;;;;;;;;-1.40;99.90;;;;;;5020130;28;20366;-75
2022/12/17 13:23:08;;;;;;;;;;;-1.40;99.90;;;;;;5008043;28;20495;-76
2022/12/17 13:25:40;;;;;;;;;;;-1.30;99.90;;;;;;5011418;28;19925;-75
2022/12/17 13:28:24;;;;;;;;;;;-1.20;99.90;;;;;;5022451;28;19925;-75
2022/12/17 13:30:59;;;;;;;;;;;-1.10;99.90;;;;;;5019759;28;19926;-75
2022/12/17 13:33:36;;;;;;;;;;;-1.00;99.90;;;;;;5025027;28;20445;-75
2022/12/17 13:36:14;;;;;;;;;;;-1.00;99.90;;;;;;5009910;28;19933;-75
2022/12/17 13:38:59;;;;;;;;;;;-1.00;99.90;;;;;;5003162;28;19972;-76
2022/12/17 13:41:32;;;;;;;;;;;-1.00;99.90;;;;;;5024892;28;19948;-75
2022/12/17 13:44:16;;;;;;;;;;;-1.00;99.90;;;;;;5020227;28;19929;-75
2022/12/17 13:46:48;;;;;;;;;;;-1.00;99.90;;;;;;5026913;28;19932;-75
2022/12/17 13:49:24;;;;;;;;;;;-0.90;99.90;;;;;;5013059;28;19925;-75
2022/12/17 13:52:04;;;;;;;;;;;-1.00;99.90;;;;;;5024854;28;19925;-75
2022/12/17 13:54:35;;;;;;;;;;;-1.20;99.90;;;;;;5008902;28;19979;-74
2022/12/17 13:57:07;;;;;;;;;;;-1.50;99.90;;;;;;5021541;28;20307;-75
2022/12/17 13:59:38;;;;;;;;;;;-1.70;99.90;;;;;;4995133;28;20395;-74
2022/12/17 14:02:29;;;;;;;;;;;-1.70;99.90;;;;;;5025483;28;19948;-74
2022/12/17 14:05:02;;;;;;;;;;;-1.80;99.90;;;;;;5023762;28;20322;-75
2022/12/17 14:07:29;;;;;;;;;;;-1.90;99.90;;;;;;5008642;28;19929;-74
2022/12/17 14:10:01;;;;;;;;;;;-2.00;99.90;;;;;;5027152;28;19925;-74
2022/12/17 14:12:34;;;;;;;;;;;-2.00;99.90;;;;;;5007282;28;19929;-75
2022/12/17 14:15:09;;;;;;;;;;;-2.10;99.90;;;;;;5000928;28;19929;-75
2022/12/17 14:17:43;;;;;;;;;;;-2.20;99.90;;;;;;4994886;28;19925;-75
2022/12/17 14:20:20;;;;;;;;;;;-2.20;99.90;;;;;;5025571;28;19929;-75
2022/12/17 14:22:58;;;;;;;;;;;-2.30;99.90;;;;;;5001921;28;20339;-75
2022/12/17 14:25:35;;;;;;;;;;;-2.40;99.90;;;;;;5022454;28;19925;-76
2022/12/17 14:28:22;;;;;;;;;;;-2.50;99.90;;;;;;4992487;28;19933;-74
2022/12/17 14:31:03;;;;;;;;;;;-2.70;99.90;;;;;;5025620;28;19979;-75
2022/12/17 14:33:36;;;;;;;;;;;-2.80;99.90;;;;;;5015549;28;19929;-76
2022/12/17 14:36:08;;;;;;;;;;;-3.00;99.90;;;;;;5014725;28;19956;-74
2022/12/17 14:38:40;;;;;;;;;;;-3.10;99.90;;;;;;5016463;28;19925;-75
2022/12/17 14:44:03;;;;;;;;;;;-3.30;99.90;;;;;;5001226;28;19936;-75
2022/12/17 14:46:30;;;;;;;;;;;-3.40;99.90;;;;;;5006369;28;20400;-75
2022/12/17 14:49:04;;;;;;;;;;;-3.50;99.90;;;;;;5012852;28;19930;-75
2022/12/17 14:51:35;;;;;;;;;;;-3.60;99.90;;;;;;5009166;28;20565;-74
2022/12/17 14:54:13;;;;;;;;;;;-3.60;99.90;;;;;;5011832;28;19948;-74
2022/12/17 14:56:47;;;;;;;;;;;-3.80;99.90;;;;;;5027773;28;20575;-74
2022/12/17 14:59:35;;;;;;;;;;;-3.80;99.90;;;;;;5012630;28;19925;-75
2022/12/17 15:02:07;;;;;;;;;;;-3.90;99.90;;;;;;5030056;28;19925;-76
2022/12/17 15:04:39;;;;;;;;;;;-4.00;99.90;;;;;;5026571;28;19926;-75
2022/12/17 15:07:16;;;;;;;;;;;-4.10;99.90;;;;;;5027614;28;19929;-76
2022/12/17 15:09:48;;;;;;;;;;;-4.20;99.90;;;;;;5031938;28;19959;-75
2022/12/17 15:12:20;;;;;;;;;;;-4.30;99.90;;;;;;4998296;28;20052;-74
2022/12/17 15:14:52;;;;;;;;;;;-4.30;99.90;;;;;;5016419;28;19987;-75
2022/12/17 15:17:23;;;;;;;;;;;-4.10;99.90;;;;;;5008116;28;19933;-75
2022/12/17 15:19:55;;;;;;;;;;;-3.90;99.90;;;;;;5006449;28;19925;-74
2022/12/17 15:22:26;;;;;;;;;;;-3.80;99.90;;;;;;5005629;28;20359;-73
2022/12/17 15:24:58;;;;;;;;;;;-3.70;99.90;;;;;;5007512;28;19956;-75
2022/12/17 15:27:29;;;;;;;;;;;-3.70;99.90;;;;;;5002477;28;19941;-75
2022/12/17 15:30:01;;;;;;;;;;;-3.70;99.90;;;;;;5006925;28;19979;-75
2022/12/17 15:32:32;;;;;;;;;;;-3.70;99.90;;;;;;5013120;28;20388;-73
2022/12/17 15:34:59;;;;;;;;;;;-3.70;99.90;;;;;;5024863;28;20620;-74
2022/12/17 15:37:31;;;;;;;;;;;-3.70;99.90;;;;;;4997090;28;19925;-74
2022/12/17 15:40:03;;;;;;;;;;;-3.50;99.90;;;;;;4993741;28;19929;-74
2022/12/17 15:45:24;;;;;;;;;;;-3.50;99.90;;;;;;5016245;28;19972;-74
2022/12/17 15:47:55;;;;;;;;;;;-3.60;99.90;;;;;;5002784;28;19971;-79
2022/12/17 15:50:27;;;;;;;;;;;-3.80;99.90;;;;;;4999903;28;20328;-76
2022/12/17 15:52:59;;;;;;;;;;;-3.90;99.90;;;;;;5021608;28;19936;-75
2022/12/17 15:55:30;;;;;;;;;;;-4.20;99.90;;;;;;5011848;28;19929;-73
2022/12/17 15:58:02;;;;;;;;;;;-4.40;99.90;;;;;;5011705;28;19925;-72
2022/12/17 16:00:34;;;;;;;;;;;-4.50;99.90;;;;;;5025766;28;19929;-72
2022/12/17 16:03:05;;;;;;;;;;;-4.60;99.90;;;;;;5013389;28;20593;-75
2022/12/17 16:05:32;;;;;;;;;;;-4.70;99.90;;;;;;4994463;28;19996;-72
2022/12/17 16:08:03;;;;;;;;;;;-4.80;99.90;;;;;;5001347;28;19930;-75
2022/12/17 16:10:30;;;;;;;;;;;-4.90;99.90;;;;;;5006787;28;20417;-75
2022/12/17 16:12:57;;;;;;;;;;;-5.00;99.90;;;;;;5025111;28;20343;-77
2022/12/17 16:15:29;;;;;;;;;;;-5.10;99.90;;;;;;5025786;28;19925;-73
2022/12/17 16:18:00;;;;;;;;;;;-5.20;99.90;;;;;;5009781;28;19925;-78
2022/12/17 16:20:32;;;;;;;;;;;-5.30;99.90;;;;;;5006201;28;20387;-75
2022/12/17 16:23:03;;;;;;;;;;;-5.40;99.90;;;;;;5029884;28;19936;-73
2022/12/17 16:25:30;;;;;;;;;;;-5.60;99.90;;;;;;5009670;28;20308;-73
2022/12/17 16:28:02;;;;;;;;;;;-5.70;99.90;;;;;;5026950;28;20383;-73
2022/12/17 16:30:33;;;;;;;;;;;-5.70;99.90;;;;;;5008502;28;19933;-73
2022/12/17 16:33:05;;;;;;;;;;;-5.30;99.90;;;;;;5012283;28;19925;-73
2022/12/17 16:35:32;;;;;;;;;;;-5.40;99.90;;;;;;5031190;28;19925;-74
2022/12/17 16:38:03;;;;;;;;;;;-5.50;99.90;;;;;;5012396;28;19933;-78
2022/12/17 16:40:38;;;;;;;;;;;-5.60;99.90;;;;;;5013414;28;19925;-76
2022/12/17 16:43:09;;;;;;;;;;;-5.80;99.90;;;;;;4996133;28;19924;-74
2022/12/17 16:45:49;;;;;;;;;;;-5.90;99.90;;;;;;5009917;28;19925;-74
2022/12/17 16:48:21;;;;;;;;;;;-6.10;99.90;;;;;;5027226;28;19925;-74
2022/12/17 16:50:48;;;;;;;;;;;-6.20;99.90;;;;;;5015488;28;19925;-77
2022/12/17 16:53:15;;;;;;;;;;;-6.30;99.90;;;;;;5010215;28;19971;-74
2022/12/17 16:55:48;;;;;;;;;;;-6.40;99.90;;;;;;5027429;28;19925;-74
2022/12/17 16:58:20;;;;;;;;;;;-6.40;99.90;;;;;;4996728;28;19925;-73
2022/12/17 17:00:52;;;;;;;;;;;-6.50;99.90;;;;;;4996518;28;19929;-73
2022/12/17 17:03:23;;;;;;;;;;;-6.60;99.90;;;;;;5008648;28;20294;-75
2022/12/17 17:05:58;;;;;;;;;;;-6.60;99.90;;;;;;5022279;28;19925;-76
2022/12/17 17:08:30;;;;;;;;;;;-6.70;99.90;;;;;;5020169;28;19932;-74
2022/12/17 17:11:09;;;;;;;;;;;-6.80;99.90;;;;;;5025964;28;19925;-74
2022/12/17 17:13:41;;;;;;;;;;;-6.80;99.90;;;;;;5013900;28;19976;-74
2022/12/17 17:16:08;;;;;;;;;;;-6.90;99.90;;;;;;5010184;28;19929;-74
2022/12/17 17:18:40;;;;;;;;;;;-7.00;99.90;;;;;;5008777;28;19933;-74
2022/12/17 17:21:17;;;;;;;;;;;-7.00;99.90;;;;;;4995363;28;20354;-73
2022/12/17 17:24:05;;;;;;;;;;;-7.00;99.90;;;;;;5022084;28;19933;-75
2022/12/17 17:26:38;;;;;;;;;;;-7.00;99.90;;;;;;5009285;28;19945;-72
2022/12/17 17:29:04;;;;;;;;;;;-7.10;99.90;;;;;;5021730;28;19956;-75
2022/12/17 17:31:36;;;;;;;;;;;-7.10;99.90;;;;;;5024232;28;19925;-73
2022/12/17 17:34:07;;;;;;;;;;;-7.10;99.90;;;;;;4992542;28;19967;-74
2022/12/17 17:36:39;;;;;;;;;;;-7.20;99.90;;;;;;5023830;28;19936;-73
2022/12/17 17:39:14;;;;;;;;;;;-7.10;99.90;;;;;;5021595;28;19932;-74
2022/12/17 17:41:45;;;;;;;;;;;-7.20;99.90;;;;;;4992597;28;19929;-73
2022/12/17 17:44:12;;;;;;;;;;;-7.20;99.90;;;;;;5026116;28;19931;-75
2022/12/17 17:46:39;;;;;;;;;;;-7.30;99.90;;;;;;4988613;28;20335;-72
2022/12/17 17:49:06;;;;;;;;;;;-7.30;99.90;;;;;;5004396;28;19925;-74
2022/12/17 17:51:40;;;;;;;;;;;-7.30;99.90;;;;;;4994601;28;19945;-73
2022/12/17 17:54:07;;;;;;;;;;;-7.30;99.90;;;;;;5005279;28;19933;-73
2022/12/17 17:56:34;;;;;;;;;;;-7.30;99.90;;;;;;4988869;28;19996;-75
2022/12/17 17:59:07;;;;;;;;;;;-7.30;99.90;;;;;;5022132;28;19925;-73
2022/12/17 18:01:40;;;;;;;;;;;-7.20;99.90;;;;;;5007401;28;19929;-75
2022/12/17 18:04:09;;;;;;;;;;;-7.10;99.90;;;;;;5008090;28;19925;-73
2022/12/17 18:06:37;;;;;;;;;;;-7.00;99.90;;;;;;5007576;28;19930;-72
2022/12/17 18:09:09;;;;;;;;;;;-6.90;99.90;;;;;;5027066;28;20311;-72
2022/12/17 18:11:42;;;;;;;;;;;-6.80;99.90;;;;;;5006864;28;19926;-74
2022/12/17 18:14:16;;;;;;;;;;;-6.70;99.90;;;;;;5013414;28;19925;-73
2022/12/17 18:16:48;;;;;;;;;;;-6.60;99.90;;;;;;5002828;28;19926;-76
2022/12/17 18:19:21;;;;;;;;;;;-6.50;99.90;;;;;;5012012;28;19925;-73
2022/12/17 18:21:53;;;;;;;;;;;-6.30;99.90;;;;;;4995849;28;19925;-74
2022/12/17 18:24:21;;;;;;;;;;;-6.00;99.90;;;;;;5023583;28;19939;-72
2022/12/17 18:26:53;;;;;;;;;;;-5.90;99.90;;;;;;4991982;28;19933;-73
2022/12/17 18:29:27;;;;;;;;;;;-5.50;99.90;;;;;;5011037;28;19957;-74
2022/12/17 18:31:59;;;;;;;;;;;-5.30;99.90;;;;;;5013069;28;20406;-74
2022/12/17 18:34:32;;;;;;;;;;;-5.30;99.90;;;;;;5023100;28;19941;-74
2022/12/17 18:37:04;;;;;;;;;;;-5.40;99.90;;;;;;5003582;28;19937;-74
2022/12/17 18:39:36;;;;;;;;;;;-5.60;99.90;;;;;;5007416;28;19929;-74
2022/12/17 18:44:53;;;;;;;;;;;-5.80;99.90;;;;;;5027042;28;20052;-74
2022/12/17 18:47:25;;;;;;;;;;;-5.90;99.90;;;;;;4994965;28;20233;-73
2022/12/17 18:49:52;;;;;;;;;;;-5.60;99.90;;;;;;5000894;28;19929;-73
2022/12/17 18:52:23;;;;;;;;;;;-5.70;99.90;;;;;;4987840;28;19930;-73
2022/12/17 18:54:50;;;;;;;;;;;-5.70;99.90;;;;;;4994260;28;19929;-73
2022/12/17 18:57:17;;;;;;;;;;;-5.80;99.90;;;;;;4994930;28;19926;-73
2022/12/17 18:59:48;;;;;;;;;;;-5.70;99.90;;;;;;5021621;28;19925;-73
2022/12/17 19:02:20;;;;;;;;;;;-5.80;99.90;;;;;;5001734;28;19991;-74
2022/12/17 19:04:52;;;;;;;;;;;-6.00;99.90;;;;;;4992003;28;19936;-74
2022/12/17 19:07:23;;;;;;;;;;;-6.10;99.90;;;;;;5017727;28;19926;-75
2022/12/17 19:09:55;;;;;;;;;;;-6.10;99.90;;;;;;5007875;28;20837;-73
2022/12/17 19:12:26;;;;;;;;;;;-6.20;99.90;;;;;;5021400;28;20453;-73
2022/12/17 19:14:58;;;;;;;;;;;-6.20;99.90;;;;;;5021262;28;20380;-74
2022/12/17 19:17:30;;;;;;;;;;;-6.20;99.90;;;;;;5011644;28;19925;-73
2022/12/17 19:20:01;;;;;;;;;;;-6.20;99.90;;;;;;5019730;28;19983;-73
2022/12/17 19:22:28;;;;;;;;;;;-6.20;99.90;;;;;;4990402;28;19929;-74
2022/12/17 19:25:00;;;;;;;;;;;-6.20;99.90;;;;;;4988621;28;19936;-77
2022/12/17 19:27:32;;;;;;;;;;;-6.30;99.90;;;;;;5025642;28;19995;-73
2022/12/17 19:30:04;;;;;;;;;;;-6.30;99.90;;;;;;5012122;28;19929;-74
2022/12/17 19:32:30;;;;;;;;;;;-6.30;99.90;;;;;;5019709;28;20446;-73
2022/12/17 19:35:02;;;;;;;;;;;-6.30;99.90;;;;;;5009197;28;19929;-74
2022/12/17 19:37:34;;;;;;;;;;;-6.40;99.90;;;;;;5026748;28;20388;-73
2022/12/17 19:40:00;;;;;;;;;;;-6.40;99.90;;;;;;5026049;28;20447;-74
2022/12/17 19:42:28;;;;;;;;;;;-6.40;99.90;;;;;;5022840;28;19925;-73
2022/12/17 19:45:00;;;;;;;;;;;-6.40;99.90;;;;;;5010815;28;20602;-73
2022/12/17 19:47:29;;;;;;;;;;;-6.40;99.90;;;;;;5020431;28;19926;-73
2022/12/17 19:50:01;;;;;;;;;;;-6.40;99.90;;;;;;5022034;28;19929;-74
2022/12/17 19:52:32;;;;;;;;;;;-6.40;99.90;;;;;;4990961;28;19929;-75
2022/12/17 19:54:59;;;;;;;;;;;-6.30;99.90;;;;;;5016414;28;20315;-74
2022/12/17 19:57:32;;;;;;;;;;;-6.40;99.90;;;;;;5023673;28;19925;-73
2022/12/17 20:00:04;;;;;;;;;;;-6.30;99.90;;;;;;5022794;28;20446;-72
2022/12/17 20:02:40;;;;;;;;;;;-6.20;99.90;;;;;;5015458;28;19925;-76
2022/12/17 20:05:12;;;;;;;;;;;-6.20;99.90;;;;;;5011130;28;20408;-74
2022/12/17 20:07:44;;;;;;;;;;;-6.20;99.90;;;;;;5022419;28;20303;-74
2022/12/17 20:10:16;;;;;;;;;;;-6.20;99.90;;;;;;5009844;28;20339;-73
2022/12/17 20:12:47;;;;;;;;;;;-6.20;99.90;;;;;;5019376;28;19925;-74
2022/12/17 20:15:19;;;;;;;;;;;-6.10;99.90;;;;;;5002486;28;20360;-73
2022/12/17 20:17:51;;;;;;;;;;;-6.20;99.90;;;;;;5018191;28;19926;-75
2022/12/17 20:20:22;;;;;;;;;;;-6.10;99.90;;;;;;5013260;28;20004;-74
2022/12/17 20:22:49;;;;;;;;;;;-6.10;99.90;;;;;;4992721;28;19940;-74
2022/12/17 20:25:15;;;;;;;;;;;-6.10;99.90;;;;;;4995368;28;19926;-75
2022/12/17 20:27:47;;;;;;;;;;;-6.00;99.90;;;;;;5002716;28;19925;-75
2022/12/17 20:30:19;;;;;;;;;;;-6.00;99.90;;;;;;5009723;28;19925;-75
2022/12/17 20:32:45;;;;;;;;;;;-6.00;99.90;;;;;;4981528;28;19929;-73
2022/12/17 20:35:17;;;;;;;;;;;-5.90;99.90;;;;;;5018337;28;19999;-75
2022/12/17 20:37:48;;;;;;;;;;;-5.90;99.90;;;;;;5012725;28;19933;-75
2022/12/17 20:40:20;;;;;;;;;;;-5.80;99.90;;;;;;5015865;28;19926;-73
2022/12/17 20:42:46;;;;;;;;;;;-5.80;99.90;;;;;;5021276;28;20350;-73
2022/12/17 20:45:13;;;;;;;;;;;-5.80;99.90;;;;;;5015876;28;19960;-74
2022/12/17 20:47:40;;;;;;;;;;;-5.70;99.90;;;;;;5021704;28;19925;-74
2022/12/17 20:50:11;;;;;;;;;;;-5.80;99.90;;;;;;5025894;28;19929;-74
2022/12/17 20:52:43;;;;;;;;;;;-5.80;99.90;;;;;;4995483;28;19929;-75
2022/12/17 20:55:14;;;;;;;;;;;-5.70;99.90;;;;;;5005514;28;19983;-75
2022/12/17 20:57:46;;;;;;;;;;;-5.70;99.90;;;;;;5011882;28;19932;-74
2022/12/17 21:00:13;;;;;;;;;;;-5.60;99.90;;;;;;4989887;28;19975;-73
2022/12/17 21:02:44;;;;;;;;;;;-5.60;99.90;;;;;;5015746;28;19933;-73
2022/12/17 21:05:11;;;;;;;;;;;-5.60;99.90;;;;;;4992923;28;19979;-74
2022/12/17 21:07:43;;;;;;;;;;;-5.60;99.90;;;;;;5003113;28;19972;-74
2022/12/17 21:10:10;;;;;;;;;;;-5.60;99.90;;;;;;5004883;28;19925;-73
2022/12/17 21:15:27;;;;;;;;;;;-5.60;99.90;;;;;;5020822;28;19983;-74
2022/12/17 21:17:59;;;;;;;;;;;-5.60;99.90;;;;;;5008546;28;19929;-74
2022/12/17 21:20:30;;;;;;;;;;;-5.60;99.90;;;;;;5026409;28;19961;-72
2022/12/17 21:23:02;;;;;;;;;;;-5.60;99.90;;;;;;5016441;28;19948;-75
2022/12/17 21:25:33;;;;;;;;;;;-5.60;99.90;;;;;;4999481;28;19925;-73
2022/12/17 21:28:00;;;;;;;;;;;-5.50;99.90;;;;;;4994839;28;19925;-73
2022/12/17 21:30:34;;;;;;;;;;;-5.50;99.90;;;;;;5019256;28;19933;-72
2022/12/17 21:33:05;;;;;;;;;;;-5.40;99.90;;;;;;5010760;28;19940;-73
2022/12/17 21:35:37;;;;;;;;;;;-5.40;99.90;;;;;;5017870;28;19975;-74
2022/12/17 21:38:04;;;;;;;;;;;-5.50;99.90;;;;;;5002177;28;19933;-72
2022/12/17 21:40:35;;;;;;;;;;;-5.40;99.90;;;;;;5022202;28;19983;-73
2022/12/17 21:43:07;;;;;;;;;;;-5.40;99.90;;;;;;5006069;28;20450;-74
2022/12/17 21:45:39;;;;;;;;;;;-5.50;99.90;;;;;;5019324;28;19930;-71
2022/12/17 21:48:06;;;;;;;;;;;-5.50;99.90;;;;;;5020243;28;19940;-74
2022/12/17 21:50:33;;;;;;;;;;;-5.40;99.90;;;;;;4984389;28;19925;-73
2022/12/17 21:53:05;;;;;;;;;;;-5.40;99.90;;;;;;5015016;28;19929;-73
2022/12/17 21:55:37;;;;;;;;;;;-5.30;99.90;;;;;;5024130;28;19925;-74
2022/12/17 21:58:08;;;;;;;;;;;-5.30;99.90;;;;;;4990569;28;19941;-75
2022/12/17 22:00:41;;;;;;;;;;;-5.20;99.90;;;;;;5001828;28;19929;-73
2022/12/17 22:03:12;;;;;;;;;;;-5.20;99.90;;;;;;5016431;28;19930;-74
2022/12/17 22:05:44;;;;;;;;;;;-5.10;99.90;;;;;;5009534;28;19972;-73
2022/12/17 22:08:11;;;;;;;;;;;-5.00;99.90;;;;;;5006117;28;19929;-75
2022/12/17 22:10:43;;;;;;;;;;;-5.00;99.90;;;;;;5007502;28;19929;-72
2022/12/17 22:16:05;;;;;;;;;;;-4.80;99.90;;;;;;5007453;28;19925;-75
2022/12/17 22:18:40;;;;;;;;;;;-4.70;99.90;;;;;;4996026;28;19925;-73
2022/12/17 22:21:07;;;;;;;;;;;-4.70;99.90;;;;;;4990772;28;19982;-72
2022/12/17 22:23:38;;;;;;;;;;;-4.70;99.90;;;;;;5023041;28;20330;-74
2022/12/17 22:26:10;;;;;;;;;;;-4.80;99.90;;;;;;4985959;28;19929;-74
2022/12/17 22:28:37;;;;;;;;;;;-4.80;99.90;;;;;;4996454;28;19929;-73
2022/12/17 22:33:56;;;;;;;;;;;-4.40;99.90;;;;;;5020512;28;20353;-73
2022/12/17 22:36:29;;;;;;;;;;;-4.10;99.90;;;;;;5021982;28;19933;-74
2022/12/17 22:38:58;;;;;;;;;;;-4.10;99.90;;;;;;4996241;28;19959;-75
2022/12/17 22:44:20;;;;;;;;;;;-4.10;99.90;;;;;;5006071;28;19925;-74
2022/12/17 22:46:47;;;;;;;;;;;-4.20;99.90;;;;;;4996723;28;20276;-75
2022/12/17 22:49:18;;;;;;;;;;;-4.30;99.90;;;;;;5027000;28;19956;-73
2022/12/17 22:51:45;;;;;;;;;;;-4.30;99.90;;;;;;5006570;28;19999;-73
2022/12/17 22:54:12;;;;;;;;;;;-4.30;99.90;;;;;;5021711;28;19926;-74
2022/12/17 22:56:40;;;;;;;;;;;-4.30;99.90;;;;;;5022034;28;19926;-75
2022/12/17 22:59:15;;;;;;;;;;;-4.40;99.90;;;;;;4989751;28;19979;-77
2022/12/17 23:01:42;;;;;;;;;;;-4.40;99.90;;;;;;5012241;28;19933;-72
2022/12/17 23:04:14;;;;;;;;;;;-4.50;99.90;;;;;;5002127;28;20021;-73
2022/12/17 23:06:46;;;;;;;;;;;-4.50;99.90;;;;;;4987916;28;19945;-72
2022/12/17 23:09:17;;;;;;;;;;;-4.50;99.90;;;;;;5012423;28;20342;-75
2022/12/17 23:11:43;;;;;;;;;;;-4.50;99.90;;;;;;5013696;28;20007;-74
2022/12/17 23:14:15;;;;;;;;;;;-4.50;99.90;;;;;;5021038;28;19925;-72
2022/12/17 23:16:47;;;;;;;;;;;-4.50;99.90;;;;;;5010212;28;19929;-76
2022/12/17 23:19:19;;;;;;;;;;;-4.50;99.90;;;;;;5018336;28;20334;-74
2022/12/17 23:21:50;;;;;;;;;;;-4.50;99.90;;;;;;5022060;28;20601;-72
2022/12/17 23:24:17;;;;;;;;;;;-4.50;99.90;;;;;;5022899;28;19937;-72
2022/12/17 23:26:43;;;;;;;;;;;-4.50;99.90;;;;;;5019574;28;20529;-72
2022/12/17 23:29:13;;;;;;;;;;;-4.40;99.90;;;;;;4986299;28;20562;-72
2022/12/17 23:31:44;;;;;;;;;;;-4.40;99.90;;;;;;5019460;28;19933;-73
2022/12/17 23:34:11;;;;;;;;;;;-4.40;99.90;;;;;;5010908;28;19925;-73
2022/12/17 23:36:42;;;;;;;;;;;-4.40;99.90;;;;;;5024340;28;19928;-73
2022/12/17 23:39:14;;;;;;;;;;;-4.40;99.90;;;;;;5011709;28;19925;-72
2022/12/17 23:41:46;;;;;;;;;;;-4.40;99.90;;;;;;5023276;28;19936;-74
2022/12/17 23:44:17;;;;;;;;;;;-4.50;99.90;;;;;;5024305;28;20354;-73
2022/12/17 23:46:49;;;;;;;;;;;-4.50;99.90;;;;;;5024406;28;19929;-73
2022/12/17 23:49:20;;;;;;;;;;;-4.50;99.90;;;;;;5013072;28;19931;-73
2022/12/17 23:51:52;;;;;;;;;;;-4.50;99.90;;;;;;5020431;28;19952;-73
2022/12/17 23:54:18;;;;;;;;;;;-4.50;99.90;;;;;;4990124;28;19964;-74
2022/12/17 23:56:50;;;;;;;;;;;-4.50;99.90;;;;;;5006934;28;20384;-72
2022/12/17 23:59:17;;;;;;;;;;;-4.50;99.90;;;;;;5005934;28;19964;-73
